sensor_id;sensor_type;location;lat;lon;timestamp;temperature;humidity
20839;DHT22;10580;51.092;6.828;2023-02-28T00:01:36;0.20;1.00
20839;DHT22;10580;51.092;6.828;2023-02-28T00:04:02;0.20;1.00
20839;DHT22;10580;51.092;6.828;2023-02-28T00:06:28;0.20;1.00
20839;DHT22;10580;51.092;6.828;2023-02-28T00:08:53;0.20;1.00
20839;DHT22;10580;51.092;6.828;2023-02-28T00:11:19;0.20;1.00
20839;DHT22;10580;51.092;6.828;2023-02-28T00:13:46;0.20;1.00
20839;DHT22;10580;51.092;6.828;2023-02-28T00:16:14;0.20;1.00
20839;DHT22;10580;51.092;6.828;2023-02-28T00:18:41;0.20;1.00
20839;DHT22;10580;51.092;6.828;2023-02-28T00:21:07;0.20;1.00
20839;DHT22;10580;51.092;6.828;2023-02-28T00:23:33;0.10;1.00
20839;DHT22;10580;51.092;6.828;2023-02-28T00:25:59;0.10;1.00
20839;DHT22;10580;51.092;6.828;2023-02-28T00:28:24;0.10;1.00
20839;DHT22;10580;51.092;6.828;2023-02-28T00:30:50;0.00;1.00
20839;DHT22;10580;51.092;6.828;2023-02-28T00:33:16;0.00;1.00
20839;DHT22;10580;51.092;6.828;2023-02-28T00:35:42;0.00;1.00
20839;DHT22;10580;51.092;6.828;2023-02-28T00:38:08;-0.10;1.00
20839;DHT22;10580;51.092;6.828;2023-02-28T00:40:34;0.00;1.00
20839;DHT22;10580;51.092;6.828;2023-02-28T00:42:59;-0.10;1.00
20839;DHT22;10580;51.092;6.828;2023-02-28T00:45:25;-0.10;1.00
20839;DHT22;10580;51.092;6.828;2023-02-28T00:47:51;-0.10;1.00
20839;DHT22;10580;51.092;6.828;2023-02-28T00:50:18;-0.10;1.00
20839;DHT22;10580;51.092;6.828;2023-02-28T00:52:43;-0.10;1.00
20839;DHT22;10580;51.092;6.828;2023-02-28T00:55:09;-0.10;1.00
20839;DHT22;10580;51.092;6.828;2023-02-28T00:57:35;-0.10;1.00
20839;DHT22;10580;51.092;6.828;2023-02-28T01:00:00;-0.10;1.00
20839;DHT22;10580;51.092;6.828;2023-02-28T01:02:26;-0.10;1.00
20839;DHT22;10580;51.092;6.828;2023-02-28T01:04:52;-0.10;1.00
20839;DHT22;10580;51.092;6.828;2023-02-28T01:07:18;-0.20;1.00
20839;DHT22;10580;51.092;6.828;2023-02-28T01:09:43;-0.10;1.00
20839;DHT22;10580;51.092;6.828;2023-02-28T01:12:09;-0.10;1.00
20839;DHT22;10580;51.092;6.828;2023-02-28T01:14:34;-0.10;1.00
20839;DHT22;10580;51.092;6.828;2023-02-28T01:17:00;0.00;1.00
20839;DHT22;10580;51.092;6.828;2023-02-28T01:19:26;0.00;1.00
20839;DHT22;10580;51.092;6.828;2023-02-28T01:21:52;0.00;1.00
20839;DHT22;10580;51.092;6.828;2023-02-28T01:24:18;0.00;1.00
20839;DHT22;10580;51.092;6.828;2023-02-28T01:26:43;0.00;1.00
20839;DHT22;10580;51.092;6.828;2023-02-28T01:29:09;-0.10;1.00
20839;DHT22;10580;51.092;6.828;2023-02-28T01:31:34;-0.10;1.00
20839;DHT22;10580;51.092;6.828;2023-02-28T01:34:00;-0.10;1.00
20839;DHT22;10580;51.092;6.828;2023-02-28T01:36:26;-0.20;1.00
20839;DHT22;10580;51.092;6.828;2023-02-28T01:38:53;-0.20;1.00
20839;DHT22;10580;51.092;6.828;2023-02-28T01:41:24;-0.20;1.00
20839;DHT22;10580;51.092;6.828;2023-02-28T01:46:24;-0.10;1.00
20839;DHT22;10580;51.092;6.828;2023-02-28T01:48:54;-0.10;1.00
20839;DHT22;10580;51.092;6.828;2023-02-28T01:51:36;-0.10;1.00
20839;DHT22;10580;51.092;6.828;2023-02-28T01:54:07;-0.10;1.00
20839;DHT22;10580;51.092;6.828;2023-02-28T01:56:42;-0.20;1.00
20839;DHT22;10580;51.092;6.828;2023-02-28T01:59:09;-0.10;1.00
20839;DHT22;10580;51.092;6.828;2023-02-28T02:01:35;-0.20;1.00
20839;DHT22;10580;51.092;6.828;2023-02-28T02:04:02;-0.20;1.00
20839;DHT22;10580;51.092;6.828;2023-02-28T02:06:43;-0.20;1.00
20839;DHT22;10580;51.092;6.828;2023-02-28T02:09:10;-0.10;1.00
20839;DHT22;10580;51.092;6.828;2023-02-28T02:11:35;-0.10;1.00
20839;DHT22;10580;51.092;6.828;2023-02-28T02:22:38;-0.20;1.00
20839;DHT22;10580;51.092;6.828;2023-02-28T02:25:22;-0.20;1.00
20839;DHT22;10580;51.092;6.828;2023-02-28T02:30:33;-0.30;1.00
20839;DHT22;10580;51.092;6.828;2023-02-28T02:36:27;-0.30;1.00
20839;DHT22;10580;51.092;6.828;2023-02-28T02:39:10;-0.30;1.00
20839;DHT22;10580;51.092;6.828;2023-02-28T02:41:54;-0.30;1.00
20839;DHT22;10580;51.092;6.828;2023-02-28T02:44:27;-0.40;1.00
20839;DHT22;10580;51.092;6.828;2023-02-28T02:47:10;-0.40;1.00
20839;DHT22;10580;51.092;6.828;2023-02-28T02:49:38;-0.50;1.00
20839;DHT22;10580;51.092;6.828;2023-02-28T02:52:08;-0.50;1.00
20839;DHT22;10580;51.092;6.828;2023-02-28T02:54:37;-0.50;1.00
20839;DHT22;10580;51.092;6.828;2023-02-28T02:57:07;-0.60;1.00
20839;DHT22;10580;51.092;6.828;2023-02-28T02:59:36;-0.60;1.00
20839;DHT22;10580;51.092;6.828;2023-02-28T03:02:06;-0.60;1.00
20839;DHT22;10580;51.092;6.828;2023-02-28T03:04:38;-0.70;1.00
20839;DHT22;10580;51.092;6.828;2023-02-28T03:07:05;-0.70;1.00
20839;DHT22;10580;51.092;6.828;2023-02-28T03:09:33;-0.70;1.00
20839;DHT22;10580;51.092;6.828;2023-02-28T03:12:00;-0.70;1.00
20839;DHT22;10580;51.092;6.828;2023-02-28T03:14:40;-0.80;1.00
20839;DHT22;10580;51.092;6.828;2023-02-28T03:22:43;-0.90;6.90
20839;DHT22;10580;51.092;6.828;2023-02-28T03:28:15;-0.90;18.80
20839;DHT22;10580;51.092;6.828;2023-02-28T03:30:49;-0.90;26.60
20839;DHT22;10580;51.092;6.828;2023-02-28T03:33:23;-0.90;34.30
20839;DHT22;10580;51.092;6.828;2023-02-28T03:36:06;-0.90;41.90
20839;DHT22;10580;51.092;6.828;2023-02-28T03:38:38;-0.90;45.40
20839;DHT22;10580;51.092;6.828;2023-02-28T03:41:27;-0.90;46.40
20839;DHT22;10580;51.092;6.828;2023-02-28T03:43:58;-1.00;53.60
20839;DHT22;10580;51.092;6.828;2023-02-28T03:46:27;-1.00;58.20
20839;DHT22;10580;51.092;6.828;2023-02-28T03:49:16;-1.00;63.10
20839;DHT22;10580;51.092;6.828;2023-02-28T03:51:46;-1.00;67.00
20839;DHT22;10580;51.092;6.828;2023-02-28T03:54:23;-1.00;71.20
20839;DHT22;10580;51.092;6.828;2023-02-28T03:57:08;-1.00;75.20
20839;DHT22;10580;51.092;6.828;2023-02-28T03:59:44;-1.00;77.10
20839;DHT22;10580;51.092;6.828;2023-02-28T04:02:11;-1.10;80.50
20839;DHT22;10580;51.092;6.828;2023-02-28T04:04:36;-1.10;82.50
20839;DHT22;10580;51.092;6.828;2023-02-28T04:07:07;-1.10;81.40
20839;DHT22;10580;51.092;6.828;2023-02-28T04:09:34;-1.10;83.70
20839;DHT22;10580;51.092;6.828;2023-02-28T04:12:00;-1.10;85.40
20839;DHT22;10580;51.092;6.828;2023-02-28T04:14:25;-1.10;87.40
20839;DHT22;10580;51.092;6.828;2023-02-28T04:16:51;-1.10;87.00
20839;DHT22;10580;51.092;6.828;2023-02-28T04:19:18;-1.10;87.70
20839;DHT22;10580;51.092;6.828;2023-02-28T04:21:46;-1.10;87.30
20839;DHT22;10580;51.092;6.828;2023-02-28T04:24:17;-1.20;89.00
20839;DHT22;10580;51.092;6.828;2023-02-28T04:26:48;-1.20;91.00
20839;DHT22;10580;51.092;6.828;2023-02-28T04:29:19;-1.20;92.10
20839;DHT22;10580;51.092;6.828;2023-02-28T04:31:45;-1.20;91.90
20839;DHT22;10580;51.092;6.828;2023-02-28T04:34:11;-1.20;92.70
20839;DHT22;10580;51.092;6.828;2023-02-28T04:36:37;-1.20;92.80
20839;DHT22;10580;51.092;6.828;2023-02-28T04:39:02;-1.20;92.80
20839;DHT22;10580;51.092;6.828;2023-02-28T04:41:29;-1.30;91.30
20839;DHT22;10580;51.092;6.828;2023-02-28T04:43:55;-1.20;89.10
20839;DHT22;10580;51.092;6.828;2023-02-28T04:46:22;-1.30;86.50
20839;DHT22;10580;51.092;6.828;2023-02-28T04:48:48;-1.30;85.20
20839;DHT22;10580;51.092;6.828;2023-02-28T04:51:15;-1.30;84.80
20839;DHT22;10580;51.092;6.828;2023-02-28T04:53:41;-1.30;84.70
20839;DHT22;10580;51.092;6.828;2023-02-28T04:56:10;-1.40;87.10
20839;DHT22;10580;51.092;6.828;2023-02-28T04:58:36;-1.40;87.10
20839;DHT22;10580;51.092;6.828;2023-02-28T05:01:25;-1.40;85.10
20839;DHT22;10580;51.092;6.828;2023-02-28T05:03:53;-1.40;82.30
20839;DHT22;10580;51.092;6.828;2023-02-28T05:06:20;-1.40;77.30
20839;DHT22;10580;51.092;6.828;2023-02-28T05:08:46;-1.40;75.00
20839;DHT22;10580;51.092;6.828;2023-02-28T05:11:21;-1.40;68.80
20839;DHT22;10580;51.092;6.828;2023-02-28T05:13:48;-1.40;64.50
20839;DHT22;10580;51.092;6.828;2023-02-28T05:16:14;-1.40;59.20
20839;DHT22;10580;51.092;6.828;2023-02-28T05:18:40;-1.40;53.60
20839;DHT22;10580;51.092;6.828;2023-02-28T05:21:06;-1.40;46.70
20839;DHT22;10580;51.092;6.828;2023-02-28T05:23:32;-1.50;45.30
20839;DHT22;10580;51.092;6.828;2023-02-28T05:25:57;-1.50;42.50
20839;DHT22;10580;51.092;6.828;2023-02-28T05:28:23;-1.50;40.10
20839;DHT22;10580;51.092;6.828;2023-02-28T05:30:49;-1.50;32.90
20839;DHT22;10580;51.092;6.828;2023-02-28T05:33:14;-1.50;30.60
20839;DHT22;10580;51.092;6.828;2023-02-28T05:35:41;-1.50;24.90
20839;DHT22;10580;51.092;6.828;2023-02-28T05:38:08;-1.50;20.60
20839;DHT22;10580;51.092;6.828;2023-02-28T05:40:34;-1.50;17.70
20839;DHT22;10580;51.092;6.828;2023-02-28T05:43:00;-1.50;21.00
20839;DHT22;10580;51.092;6.828;2023-02-28T05:45:26;-1.60;27.10
20839;DHT22;10580;51.092;6.828;2023-02-28T05:47:55;-1.60;25.90
20839;DHT22;10580;51.092;6.828;2023-02-28T05:50:21;-1.60;16.70
20839;DHT22;10580;51.092;6.828;2023-02-28T05:52:50;-1.60;11.60
20839;DHT22;10580;51.092;6.828;2023-02-28T05:55:16;-1.60;6.50
20839;DHT22;10580;51.092;6.828;2023-02-28T05:57:42;-1.60;3.60
20839;DHT22;10580;51.092;6.828;2023-02-28T06:00:09;-1.60;1.00
20839;DHT22;10580;51.092;6.828;2023-02-28T06:02:35;-1.60;1.00
20839;DHT22;10580;51.092;6.828;2023-02-28T06:05:00;-1.60;1.00
20839;DHT22;10580;51.092;6.828;2023-02-28T06:07:26;-1.60;1.00
20839;DHT22;10580;51.092;6.828;2023-02-28T06:09:51;-1.60;1.00
20839;DHT22;10580;51.092;6.828;2023-02-28T06:12:17;-1.50;1.00
20839;DHT22;10580;51.092;6.828;2023-02-28T06:14:42;-1.50;1.00
20839;DHT22;10580;51.092;6.828;2023-02-28T06:17:09;-1.50;1.00
20839;DHT22;10580;51.092;6.828;2023-02-28T06:19:37;-1.50;1.00
20839;DHT22;10580;51.092;6.828;2023-02-28T06:22:04;-1.50;1.00
20839;DHT22;10580;51.092;6.828;2023-02-28T06:24:29;-1.50;1.00
20839;DHT22;10580;51.092;6.828;2023-02-28T06:26:56;-1.50;1.00
20839;DHT22;10580;51.092;6.828;2023-02-28T06:29:24;-1.50;1.00
20839;DHT22;10580;51.092;6.828;2023-02-28T06:31:50;-1.50;1.00
20839;DHT22;10580;51.092;6.828;2023-02-28T06:34:16;-1.40;1.00
20839;DHT22;10580;51.092;6.828;2023-02-28T06:36:42;-1.40;1.00
20839;DHT22;10580;51.092;6.828;2023-02-28T06:39:08;-1.40;1.00
20839;DHT22;10580;51.092;6.828;2023-02-28T06:41:35;-1.40;1.00
20839;DHT22;10580;51.092;6.828;2023-02-28T06:44:04;-1.40;1.00
20839;DHT22;10580;51.092;6.828;2023-02-28T06:46:31;-1.30;1.00
20839;DHT22;10580;51.092;6.828;2023-02-28T06:48:57;-1.30;1.00
20839;DHT22;10580;51.092;6.828;2023-02-28T06:51:22;-1.30;1.00
20839;DHT22;10580;51.092;6.828;2023-02-28T06:53:50;-1.20;1.00
20839;DHT22;10580;51.092;6.828;2023-02-28T06:56:17;-1.20;1.00
20839;DHT22;10580;51.092;6.828;2023-02-28T06:58:47;-1.10;1.00
20839;DHT22;10580;51.092;6.828;2023-02-28T07:01:14;-1.10;1.00
20839;DHT22;10580;51.092;6.828;2023-02-28T07:03:39;-1.00;1.00
20839;DHT22;10580;51.092;6.828;2023-02-28T07:06:10;-0.90;1.00
20839;DHT22;10580;51.092;6.828;2023-02-28T07:08:36;-0.80;1.00
20839;DHT22;10580;51.092;6.828;2023-02-28T07:11:02;-0.70;1.00
20839;DHT22;10580;51.092;6.828;2023-02-28T07:13:28;-0.50;1.00
20839;DHT22;10580;51.092;6.828;2023-02-28T07:15:56;0.20;1.00
20839;DHT22;10580;51.092;6.828;2023-02-28T07:18:22;1.90;1.00
20839;DHT22;10580;51.092;6.828;2023-02-28T07:20:47;3.40;1.00
20839;DHT22;10580;51.092;6.828;2023-02-28T07:23:13;3.50;1.00
20839;DHT22;10580;51.092;6.828;2023-02-28T07:25:39;3.20;99.90
20839;DHT22;10580;51.092;6.828;2023-02-28T07:28:04;2.80;1.00
20839;DHT22;10580;51.092;6.828;2023-02-28T07:30:30;2.60;1.00
20839;DHT22;10580;51.092;6.828;2023-02-28T07:32:56;2.50;1.00
20839;DHT22;10580;51.092;6.828;2023-02-28T07:35:22;2.50;1.00
20839;DHT22;10580;51.092;6.828;2023-02-28T07:37:47;2.60;1.00
20839;DHT22;10580;51.092;6.828;2023-02-28T07:40:13;2.80;1.00
20839;DHT22;10580;51.092;6.828;2023-02-28T07:42:41;3.50;1.00
20839;DHT22;10580;51.092;6.828;2023-02-28T07:45:07;3.90;99.90
20839;DHT22;10580;51.092;6.828;2023-02-28T07:47:34;3.80;99.90
20839;DHT22;10580;51.092;6.828;2023-02-28T07:49:59;4.00;99.90
20839;DHT22;10580;51.092;6.828;2023-02-28T07:52:25;4.60;99.90
20839;DHT22;10580;51.092;6.828;2023-02-28T07:54:51;4.70;99.90
20839;DHT22;10580;51.092;6.828;2023-02-28T07:57:16;4.20;94.20
20839;DHT22;10580;51.092;6.828;2023-02-28T07:59:42;3.60;96.00
20839;DHT22;10580;51.092;6.828;2023-02-28T08:02:14;3.10;96.70
20839;DHT22;10580;51.092;6.828;2023-02-28T08:04:39;2.70;95.80
20839;DHT22;10580;51.092;6.828;2023-02-28T08:07:05;2.30;99.90
20839;DHT22;10580;51.092;6.828;2023-02-28T08:09:31;2.30;99.90
20839;DHT22;10580;51.092;6.828;2023-02-28T08:11:56;2.10;99.90
20839;DHT22;10580;51.092;6.828;2023-02-28T08:14:25;2.10;99.90
20839;DHT22;10580;51.092;6.828;2023-02-28T08:16:51;2.10;99.90
20839;DHT22;10580;51.092;6.828;2023-02-28T08:19:17;2.10;99.90
20839;DHT22;10580;51.092;6.828;2023-02-28T08:21:42;2.20;99.90
20839;DHT22;10580;51.092;6.828;2023-02-28T08:24:08;2.20;99.90
20839;DHT22;10580;51.092;6.828;2023-02-28T08:26:33;2.30;99.90
20839;DHT22;10580;51.092;6.828;2023-02-28T08:28:59;2.30;98.90
20839;DHT22;10580;51.092;6.828;2023-02-28T08:31:25;2.20;72.50
20839;DHT22;10580;51.092;6.828;2023-02-28T08:33:50;2.30;79.30
20839;DHT22;10580;51.092;6.828;2023-02-28T08:36:18;2.50;49.30
20839;DHT22;10580;51.092;6.828;2023-02-28T08:38:44;2.70;28.70
20839;DHT22;10580;51.092;6.828;2023-02-28T08:41:12;2.90;26.20
20839;DHT22;10580;51.092;6.828;2023-02-28T08:43:38;3.20;10.10
20839;DHT22;10580;51.092;6.828;2023-02-28T08:46:05;3.30;1.00
20839;DHT22;10580;51.092;6.828;2023-02-28T08:48:33;3.30;1.00
20839;DHT22;10580;51.092;6.828;2023-02-28T08:51:09;3.20;1.00
20839;DHT22;10580;51.092;6.828;2023-02-28T08:53:38;3.10;1.00
20839;DHT22;10580;51.092;6.828;2023-02-28T08:56:10;3.30;1.00
20839;DHT22;10580;51.092;6.828;2023-02-28T08:58:36;3.90;1.00
20839;DHT22;10580;51.092;6.828;2023-02-28T09:01:35;5.60;1.00
20839;DHT22;10580;51.092;6.828;2023-02-28T09:04:02;7.90;1.00
20839;DHT22;10580;51.092;6.828;2023-02-28T09:06:28;9.20;1.00
20839;DHT22;10580;51.092;6.828;2023-02-28T09:08:56;9.80;1.00
20839;DHT22;10580;51.092;6.828;2023-02-28T09:11:23;10.00;1.00
20839;DHT22;10580;51.092;6.828;2023-02-28T09:13:49;10.00;1.00
20839;DHT22;10580;51.092;6.828;2023-02-28T09:16:15;10.00;1.00
20839;DHT22;10580;51.092;6.828;2023-02-28T09:18:41;9.30;1.00
20839;DHT22;10580;51.092;6.828;2023-02-28T09:21:12;9.30;1.00
20839;DHT22;10580;51.092;6.828;2023-02-28T09:23:43;8.70;1.00
20839;DHT22;10580;51.092;6.828;2023-02-28T09:26:14;8.50;1.00
20839;DHT22;10580;51.092;6.828;2023-02-28T09:28:40;7.90;1.00
20839;DHT22;10580;51.092;6.828;2023-02-28T09:31:06;7.80;1.00
20839;DHT22;10580;51.092;6.828;2023-02-28T09:33:31;8.00;1.00
20839;DHT22;10580;51.092;6.828;2023-02-28T09:35:59;7.60;1.00
20839;DHT22;10580;51.092;6.828;2023-02-28T09:38:25;7.30;1.00
20839;DHT22;10580;51.092;6.828;2023-02-28T09:40:59;7.30;1.00
20839;DHT22;10580;51.092;6.828;2023-02-28T09:43:29;8.10;1.00
20839;DHT22;10580;51.092;6.828;2023-02-28T09:46:25;8.90;1.00
20839;DHT22;10580;51.092;6.828;2023-02-28T09:48:48;9.70;1.00
20839;DHT22;10580;51.092;6.828;2023-02-28T09:53:59;10.00;1.00
20839;DHT22;10580;51.092;6.828;2023-02-28T09:56:31;8.60;1.00
20839;DHT22;10580;51.092;6.828;2023-02-28T09:59:10;8.70;1.00
20839;DHT22;10580;51.092;6.828;2023-02-28T10:06:51;8.10;1.00
20839;DHT22;10580;51.092;6.828;2023-02-28T10:09:22;7.60;1.00
20839;DHT22;10580;51.092;6.828;2023-02-28T10:11:52;7.50;1.00
20839;DHT22;10580;51.092;6.828;2023-02-28T10:14:20;7.60;1.00
20839;DHT22;10580;51.092;6.828;2023-02-28T10:17:03;7.60;1.00
20839;DHT22;10580;51.092;6.828;2023-02-28T10:19:44;7.90;1.00
20839;DHT22;10580;51.092;6.828;2023-02-28T10:22:26;7.80;1.00
20839;DHT22;10580;51.092;6.828;2023-02-28T10:24:55;7.70;1.00
20839;DHT22;10580;51.092;6.828;2023-02-28T10:27:29;7.50;1.00
20839;DHT22;10580;51.092;6.828;2023-02-28T10:29:57;7.90;1.00
20839;DHT22;10580;51.092;6.828;2023-02-28T10:32:29;8.40;1.00
20839;DHT22;10580;51.092;6.828;2023-02-28T10:37:30;8.50;1.00
20839;DHT22;10580;51.092;6.828;2023-02-28T10:39:57;8.70;1.00
20839;DHT22;10580;51.092;6.828;2023-02-28T10:42:30;9.20;1.00
20839;DHT22;10580;51.092;6.828;2023-02-28T10:45:07;10.10;1.00
20839;DHT22;10580;51.092;6.828;2023-02-28T10:47:34;9.70;1.00
20839;DHT22;10580;51.092;6.828;2023-02-28T10:50:27;8.90;1.00
20839;DHT22;10580;51.092;6.828;2023-02-28T10:52:53;9.00;1.00
20839;DHT22;10580;51.092;6.828;2023-02-28T10:55:25;8.50;1.00
20839;DHT22;10580;51.092;6.828;2023-02-28T10:57:52;8.40;1.00
20839;DHT22;10580;51.092;6.828;2023-02-28T11:00:23;7.50;1.00
20839;DHT22;10580;51.092;6.828;2023-02-28T11:02:51;7.70;1.00
20839;DHT22;10580;51.092;6.828;2023-02-28T11:05:27;8.30;1.00
20839;DHT22;10580;51.092;6.828;2023-02-28T11:07:55;9.30;1.00
20839;DHT22;10580;51.092;6.828;2023-02-28T11:10:24;9.60;1.00
20839;DHT22;10580;51.092;6.828;2023-02-28T11:12:55;8.80;1.00
20839;DHT22;10580;51.092;6.828;2023-02-28T11:17:58;7.10;1.00
20839;DHT22;10580;51.092;6.828;2023-02-28T11:20:28;6.60;1.00
20839;DHT22;10580;51.092;6.828;2023-02-28T11:22:55;6.20;1.00
20839;DHT22;10580;51.092;6.828;2023-02-28T11:25:24;6.00;1.00
20839;DHT22;10580;51.092;6.828;2023-02-28T11:27:59;6.10;1.00
20839;DHT22;10580;51.092;6.828;2023-02-28T11:30:31;5.90;1.00
20839;DHT22;10580;51.092;6.828;2023-02-28T11:32:57;5.70;1.00
20839;DHT22;10580;51.092;6.828;2023-02-28T11:35:38;5.30;1.00
20839;DHT22;10580;51.092;6.828;2023-02-28T11:38:12;5.20;1.00
20839;DHT22;10580;51.092;6.828;2023-02-28T11:45:56;5.30;1.00
20839;DHT22;10580;51.092;6.828;2023-02-28T11:48:41;5.20;1.00
20839;DHT22;10580;51.092;6.828;2023-02-28T11:51:19;5.20;1.00
20839;DHT22;10580;51.092;6.828;2023-02-28T11:56:40;5.20;1.00
20839;DHT22;10580;51.092;6.828;2023-02-28T11:59:32;5.20;1.00
20839;DHT22;10580;51.092;6.828;2023-02-28T12:10:50;7.40;1.00
20839;DHT22;10580;51.092;6.828;2023-02-28T12:19:10;8.00;1.00
20839;DHT22;10580;51.092;6.828;2023-02-28T12:24:14;7.00;1.00
20839;DHT22;10580;51.092;6.828;2023-02-28T12:26:46;6.70;1.00
20839;DHT22;10580;51.092;6.828;2023-02-28T12:29:30;6.90;1.00
20839;DHT22;10580;51.092;6.828;2023-02-28T12:32:13;6.70;1.00
20839;DHT22;10580;51.092;6.828;2023-02-28T12:34:44;6.60;1.00
20839;DHT22;10580;51.092;6.828;2023-02-28T12:37:39;6.30;1.00
20839;DHT22;10580;51.092;6.828;2023-02-28T12:40:27;6.10;1.00
20839;DHT22;10580;51.092;6.828;2023-02-28T12:43:02;6.40;1.00
20839;DHT22;10580;51.092;6.828;2023-02-28T12:45:48;6.70;1.00
20839;DHT22;10580;51.092;6.828;2023-02-28T12:48:20;6.90;1.00
20839;DHT22;10580;51.092;6.828;2023-02-28T12:50:48;6.50;1.00
20839;DHT22;10580;51.092;6.828;2023-02-28T12:59:03;6.00;1.00
20839;DHT22;10580;51.092;6.828;2023-02-28T13:02:02;5.90;1.00
20839;DHT22;10580;51.092;6.828;2023-02-28T13:07:51;6.20;1.00
20839;DHT22;10580;51.092;6.828;2023-02-28T13:10:21;6.30;1.00
20839;DHT22;10580;51.092;6.828;2023-02-28T13:12:53;6.90;1.00
20839;DHT22;10580;51.092;6.828;2023-02-28T13:15:26;7.70;1.00
20839;DHT22;10580;51.092;6.828;2023-02-28T13:17:56;8.40;1.00
20839;DHT22;10580;51.092;6.828;2023-02-28T13:20:46;8.50;1.00
20839;DHT22;10580;51.092;6.828;2023-02-28T13:26:06;8.60;1.00
20839;DHT22;10580;51.092;6.828;2023-02-28T13:31:16;9.00;1.00
20839;DHT22;10580;51.092;6.828;2023-02-28T13:38:42;9.20;1.00
20839;DHT22;10580;51.092;6.828;2023-02-28T13:44:18;9.60;1.00
20839;DHT22;10580;51.092;6.828;2023-02-28T13:51:52;9.80;1.00
20839;DHT22;10580;51.092;6.828;2023-02-28T13:57:11;9.70;1.00
20839;DHT22;10580;51.092;6.828;2023-02-28T14:05:17;9.50;1.00
20839;DHT22;10580;51.092;6.828;2023-02-28T14:07:50;9.10;1.00
20839;DHT22;10580;51.092;6.828;2023-02-28T14:10:30;8.80;1.00
20839;DHT22;10580;51.092;6.828;2023-02-28T14:18:18;8.20;1.00
20839;DHT22;10580;51.092;6.828;2023-02-28T14:20:46;8.40;1.00
20839;DHT22;10580;51.092;6.828;2023-02-28T14:32:35;8.60;1.00
20839;DHT22;10580;51.092;6.828;2023-02-28T14:37:57;8.40;1.00
20839;DHT22;10580;51.092;6.828;2023-02-28T14:40:33;8.40;1.00
20839;DHT22;10580;51.092;6.828;2023-02-28T14:43:02;8.30;1.00
20839;DHT22;10580;51.092;6.828;2023-02-28T14:45:33;8.00;1.00
20839;DHT22;10580;51.092;6.828;2023-02-28T14:48:01;7.90;1.00
20839;DHT22;10580;51.092;6.828;2023-02-28T14:50:34;8.00;1.00
20839;DHT22;10580;51.092;6.828;2023-02-28T14:53:01;7.80;1.00
20839;DHT22;10580;51.092;6.828;2023-02-28T14:55:33;7.80;1.00
20839;DHT22;10580;51.092;6.828;2023-02-28T14:58:05;7.90;1.00
20839;DHT22;10580;51.092;6.828;2023-02-28T15:00:47;7.80;1.00
20839;DHT22;10580;51.092;6.828;2023-02-28T15:03:23;7.70;1.00
20839;DHT22;10580;51.092;6.828;2023-02-28T15:05:58;7.60;1.00
20839;DHT22;10580;51.092;6.828;2023-02-28T15:08:24;7.40;1.00
20839;DHT22;10580;51.092;6.828;2023-02-28T15:11:09;7.40;1.00
20839;DHT22;10580;51.092;6.828;2023-02-28T15:13:46;7.30;1.00
20839;DHT22;10580;51.092;6.828;2023-02-28T15:16:42;7.30;1.00
20839;DHT22;10580;51.092;6.828;2023-02-28T15:19:22;7.30;1.00
20839;DHT22;10580;51.092;6.828;2023-02-28T15:22:00;7.30;1.00
20839;DHT22;10580;51.092;6.828;2023-02-28T15:26:59;7.10;1.00
20839;DHT22;10580;51.092;6.828;2023-02-28T15:29:28;7.10;1.00
20839;DHT22;10580;51.092;6.828;2023-02-28T15:31:58;7.10;1.00
20839;DHT22;10580;51.092;6.828;2023-02-28T15:34:43;7.10;1.00
20839;DHT22;10580;51.092;6.828;2023-02-28T15:46:07;7.10;1.00
20839;DHT22;10580;51.092;6.828;2023-02-28T15:48:44;7.10;1.00
20839;DHT22;10580;51.092;6.828;2023-02-28T15:56:57;6.80;1.00
20839;DHT22;10580;51.092;6.828;2023-02-28T15:59:33;6.60;1.00
20839;DHT22;10580;51.092;6.828;2023-02-28T16:04:36;6.50;1.00
20839;DHT22;10580;51.092;6.828;2023-02-28T16:07:12;6.50;1.00
20839;DHT22;10580;51.092;6.828;2023-02-28T16:09:38;6.50;1.00
20839;DHT22;10580;51.092;6.828;2023-02-28T16:12:03;6.40;1.00
20839;DHT22;10580;51.092;6.828;2023-02-28T16:14:31;6.30;1.00
20839;DHT22;10580;51.092;6.828;2023-02-28T16:17:03;6.20;1.00
20839;DHT22;10580;51.092;6.828;2023-02-28T16:19:29;6.10;1.00
20839;DHT22;10580;51.092;6.828;2023-02-28T16:22:04;6.00;1.00
20839;DHT22;10580;51.092;6.828;2023-02-28T16:24:29;5.90;1.00
20839;DHT22;10580;51.092;6.828;2023-02-28T16:26:56;5.70;1.00
20839;DHT22;10580;51.092;6.828;2023-02-28T16:29:34;5.60;1.00
20839;DHT22;10580;51.092;6.828;2023-02-28T16:32:03;5.50;1.00
20839;DHT22;10580;51.092;6.828;2023-02-28T16:34:29;5.40;1.00
20839;DHT22;10580;51.092;6.828;2023-02-28T16:36:55;5.40;1.00
20839;DHT22;10580;51.092;6.828;2023-02-28T16:39:20;5.30;1.00
20839;DHT22;10580;51.092;6.828;2023-02-28T16:41:50;5.20;1.00
20839;DHT22;10580;51.092;6.828;2023-02-28T16:44:35;5.00;1.00
20839;DHT22;10580;51.092;6.828;2023-02-28T16:47:03;5.00;1.00
20839;DHT22;10580;51.092;6.828;2023-02-28T16:49:29;4.90;1.00
20839;DHT22;10580;51.092;6.828;2023-02-28T16:51:55;4.80;1.00
20839;DHT22;10580;51.092;6.828;2023-02-28T16:54:20;4.70;1.00
20839;DHT22;10580;51.092;6.828;2023-02-28T16:56:52;4.70;1.00
20839;DHT22;10580;51.092;6.828;2023-02-28T16:59:24;4.60;1.00
20839;DHT22;10580;51.092;6.828;2023-02-28T17:01:51;4.50;1.00
20839;DHT22;10580;51.092;6.828;2023-02-28T17:04:17;4.50;1.00
20839;DHT22;10580;51.092;6.828;2023-02-28T17:06:43;4.40;1.00
20839;DHT22;10580;51.092;6.828;2023-02-28T17:09:20;4.30;1.00
20839;DHT22;10580;51.092;6.828;2023-02-28T17:11:50;4.30;1.00
20839;DHT22;10580;51.092;6.828;2023-02-28T17:14:18;4.20;1.00
20839;DHT22;10580;51.092;6.828;2023-02-28T17:16:43;4.20;1.00
20839;DHT22;10580;51.092;6.828;2023-02-28T17:19:13;4.10;1.00
20839;DHT22;10580;51.092;6.828;2023-02-28T17:21:43;4.10;1.00
20839;DHT22;10580;51.092;6.828;2023-02-28T17:24:10;4.00;1.00
20839;DHT22;10580;51.092;6.828;2023-02-28T17:26:43;3.90;18.20
20839;DHT22;10580;51.092;6.828;2023-02-28T17:29:18;3.80;96.70
20839;DHT22;10580;51.092;6.828;2023-02-28T17:31:47;3.80;99.90
20839;DHT22;10580;51.092;6.828;2023-02-28T17:34:13;3.70;99.90
20839;DHT22;10580;51.092;6.828;2023-02-28T17:36:50;3.70;99.90
20839;DHT22;10580;51.092;6.828;2023-02-28T17:39:17;3.60;99.90
20839;DHT22;10580;51.092;6.828;2023-02-28T17:41:52;3.60;99.90
20839;DHT22;10580;51.092;6.828;2023-02-28T17:44:21;3.60;99.90
20839;DHT22;10580;51.092;6.828;2023-02-28T17:46:47;3.50;99.90
20839;DHT22;10580;51.092;6.828;2023-02-28T17:49:14;3.50;99.90
20839;DHT22;10580;51.092;6.828;2023-02-28T17:51:40;3.50;99.90
20839;DHT22;10580;51.092;6.828;2023-02-28T17:54:06;3.40;99.90
20839;DHT22;10580;51.092;6.828;2023-02-28T17:56:32;3.40;99.90
20839;DHT22;10580;51.092;6.828;2023-02-28T17:58:57;3.40;1.00
20839;DHT22;10580;51.092;6.828;2023-02-28T18:01:23;3.40;1.00
20839;DHT22;10580;51.092;6.828;2023-02-28T18:03:51;3.30;1.00
20839;DHT22;10580;51.092;6.828;2023-02-28T18:06:31;3.30;1.00
20839;DHT22;10580;51.092;6.828;2023-02-28T18:08:58;3.20;1.00
20839;DHT22;10580;51.092;6.828;2023-02-28T18:11:24;3.10;1.00
20839;DHT22;10580;51.092;6.828;2023-02-28T18:13:52;3.10;1.00
20839;DHT22;10580;51.092;6.828;2023-02-28T18:16:38;3.10;1.00
20839;DHT22;10580;51.092;6.828;2023-02-28T18:19:25;3.00;1.00
20839;DHT22;10580;51.092;6.828;2023-02-28T18:22:21;3.00;1.00
20839;DHT22;10580;51.092;6.828;2023-02-28T18:25:04;3.00;99.90
20839;DHT22;10580;51.092;6.828;2023-02-28T18:27:30;2.90;99.90